Time;durP1;ratioP1;P1;durP2;ratioP2;P2;SDS_P1;SDS_P2;PMS_P1;PMS_P2;Temp;Humidity;BMP_temperature;BMP_pressure;BME280_temperature;BME280_humidity;BME280_pressure;Samples;Min_cycle;Max_cycle;Signal;HPM_P1;HPM_P2
2022/08/06 00:02:27;;;;;;;7.00;6.32;;;;;;;20.03;67.48;96253.59;5113759;28;20054;-66
2022/08/06 00:04:54;;;;;;;6.65;5.82;;;;;;;20.06;66.93;96248.91;5113496;28;20105;-66
2022/08/06 00:07:22;;;;;;;6.55;5.47;;;;;;;20.13;66.74;96243.94;5113685;28;20047;-68
2022/08/06 00:09:49;;;;;;;8.43;6.00;;;;;;;20.13;66.26;96246.56;5113739;27;20078;-69
2022/08/06 00:12:17;;;;;;;9.63;5.68;;;;;;;20.14;67.00;96247.44;5113176;28;20086;-66
2022/08/06 00:14:44;;;;;;;8.50;5.95;;;;;;;20.12;67.39;96244.03;5113534;28;20047;-69
2022/08/06 00:17:13;;;;;;;5.90;5.35;;;;;;;20.07;66.95;96241.75;5113509;28;20051;-69
2022/08/06 00:19:40;;;;;;;6.45;5.85;;;;;;;20.07;67.04;96241.75;5113532;28;20051;-69
2022/08/06 00:22:07;;;;;;;6.80;6.10;;;;;;;20.04;66.71;96244.66;5113543;28;20055;-68
2022/08/06 00:24:34;;;;;;;6.18;5.57;;;;;;;20.02;66.04;96247.44;5113476;28;20089;-66
2022/08/06 00:27:01;;;;;;;6.50;5.90;;;;;;;20.02;67.22;96242.13;5113429;28;20051;-66
2022/08/06 00:29:29;;;;;;;8.63;5.85;;;;;;;19.98;67.13;96242.50;5113371;28;20047;-70
2022/08/06 00:31:56;;;;;;;6.95;5.60;;;;;;;19.94;66.80;96241.91;5113412;28;20043;-68
2022/08/06 00:34:25;;;;;;;6.13;5.57;;;;;;;19.91;66.52;96242.16;5113405;28;20055;-70
2022/08/06 00:36:52;;;;;;;7.32;6.13;;;;;;;19.94;67.31;96241.91;5113430;28;20054;-70
2022/08/06 00:39:19;;;;;;;6.68;5.82;;;;;;;19.83;67.41;96251.56;5113262;28;20403;-69
2022/08/06 00:41:46;;;;;;;8.15;5.82;;;;;;;19.74;68.19;96241.69;5113266;28;20090;-66
2022/08/06 00:44:14;;;;;;;7.22;6.03;;;;;;;19.68;67.81;96242.19;5113409;28;20529;-66
2022/08/06 00:46:41;;;;;;;7.25;6.53;;;;;;;19.67;67.96;96253.75;5113216;28;20139;-67
2022/08/06 00:49:08;;;;;;;6.50;5.80;;;;;;;19.66;67.90;96244.13;5113298;28;20105;-68
2022/08/06 00:51:37;;;;;;;6.57;5.97;;;;;;;19.59;68.21;96241.09;5113225;28;20083;-67
2022/08/06 00:54:04;;;;;;;6.72;6.03;;;;;;;19.58;67.86;96244.72;5113228;28;20074;-69
2022/08/06 00:56:31;;;;;;;7.30;5.97;;;;;;;19.45;68.90;96242.22;5113266;28;20481;-69
2022/08/06 00:58:58;;;;;;;8.18;6.70;;;;;;;19.41;69.39;96249.56;5113182;28;20048;-68
2022/08/06 01:01:25;;;;;;;7.10;6.30;;;;;;;19.30;69.80;96245.09;5113155;28;20091;-70
2022/08/06 01:03:52;;;;;;;10.88;6.90;;;;;;;19.31;69.92;96251.25;5112956;28;20117;-69
2022/08/06 01:06:20;;;;;;;7.25;6.45;;;;;;;19.29;69.76;96250.50;5113143;28;20040;-70
2022/08/06 01:08:48;;;;;;;7.15;5.20;;;;;;;19.25;69.34;96252.56;5113136;28;20055;-68
2022/08/06 01:11:15;;;;;;;7.30;6.60;;;;;;;19.25;69.42;96251.72;5113196;28;20051;-67
2022/08/06 01:13:42;;;;;;;6.78;6.07;;;;;;;19.26;69.50;96254.25;5113182;28;20078;-66
2022/08/06 01:16:16;;;;;;;6.45;5.85;;;;;;;19.21;69.03;96245.81;5113017;28;20048;-68
2022/08/06 01:18:58;;;;;;;6.65;6.05;;;;;;;19.12;69.46;96243.88;5112870;28;20052;-69
2022/08/06 01:21:50;;;;;;;6.75;5.97;;;;;;;19.05;69.44;96246.97;5112918;28;20571;-69
2022/08/06 01:24:51;;;;;;;6.20;5.60;;;;;;;19.05;70.04;96248.78;5112891;28;20054;-70
2022/08/06 01:27:37;;;;;;;6.72;6.03;;;;;;;19.00;69.59;96243.84;5116632;28;20044;-68
2022/08/06 01:30:07;;;;;;;7.65;6.95;;;;;;;18.95;70.04;96246.00;5116621;28;20043;-69
2022/08/06 01:32:39;;;;;;;8.45;6.90;;;;;;;18.82;71.04;96251.41;5116583;28;20044;-68
2022/08/06 01:35:11;;;;;;;7.63;6.82;;;;;;;18.72;71.61;96253.06;5116556;28;20047;-67
2022/08/06 01:37:45;;;;;;;7.00;6.30;;;;;;;18.68;71.32;96248.00;5116463;28;20086;-70
2022/08/06 01:40:17;;;;;;;10.68;6.90;;;;;;;18.64;71.32;96248.34;5116488;28;20504;-66
2022/08/06 01:42:47;;;;;;;9.50;6.63;;;;;;;18.70;71.71;96247.88;5116296;28;20079;-68
2022/08/06 01:45:18;;;;;;;10.52;6.85;;;;;;;18.71;70.63;96236.31;5116283;28;20086;-68
2022/08/06 01:47:47;;;;;;;;;;;;;;;18.73;70.60;96247.66;5116630;28;20048;-67
2022/08/06 01:50:16;;;;;;;7.15;6.45;;;;;;;18.73;70.91;96249.44;5116366;28;19998;-68
2022/08/06 01:52:44;;;;;;;6.85;6.15;;;;;;;18.66;70.84;96239.31;5116123;28;20082;-68
2022/08/06 01:55:17;;;;;;;7.68;6.93;;;;;;;18.61;70.74;96235.31;5116147;28;20109;-69
2022/08/06 01:57:51;;;;;;;6.85;5.90;;;;;;;18.58;70.72;96231.13;5116273;28;20636;-70
2022/08/06 02:00:19;;;;;;;7.40;6.28;;;;;;;18.58;70.75;96224.97;5115979;28;20101;-67
2022/08/06 02:02:47;;;;;;;7.10;6.40;;;;;;;18.50;70.82;96220.25;5116083;28;20093;-67
2022/08/06 02:05:17;;;;;;;8.15;7.35;;;;;;;18.39;73.21;96221.06;5115739;28;20377;-68
2022/08/06 02:07:49;;;;;;;8.35;7.55;;;;;;;18.36;73.08;96223.94;5115959;28;20138;-67
2022/08/06 02:10:18;;;;;;;7.72;7.03;;;;;;;18.35;73.50;96225.72;5115800;28;20050;-67
2022/08/06 02:12:48;;;;;;;7.97;6.88;;;;;;;18.36;73.01;96227.41;5115723;28;20061;-66
2022/08/06 02:15:21;;;;;;;7.22;6.57;;;;;;;18.33;73.17;96225.00;5115759;28;20047;-67
2022/08/06 02:17:53;;;;;;;7.72;6.63;;;;;;;18.26;72.58;96226.41;5115684;28;20476;-68
2022/08/06 02:20:26;;;;;;;7.75;6.72;;;;;;;18.18;73.32;96227.81;5115516;28;20050;-68
2022/08/06 02:22:55;;;;;;;8.43;6.75;;;;;;;18.16;73.52;96223.63;5115625;28;20047;-68
2022/08/06 02:25:24;;;;;;;7.15;6.55;;;;;;;18.15;73.49;96221.94;5115671;28;20412;-67
2022/08/06 02:27:55;;;;;;;7.95;7.03;;;;;;;18.15;73.34;96219.28;5115547;28;20039;-66
2022/08/06 02:30:24;;;;;;;7.28;6.22;;;;;;;18.17;73.17;96222.66;5115356;28;20127;-70
2022/08/06 02:32:51;;;;;;;7.40;6.70;;;;;;;18.23;73.15;96219.56;5115444;28;20092;-67
2022/08/06 02:35:19;;;;;;;9.13;6.57;;;;;;;18.24;72.52;96223.88;5114940;28;20051;-66
2022/08/06 02:37:50;;;;;;;8.18;6.82;;;;;;;18.23;72.27;96221.34;5115314;28;20381;-69
2022/08/06 02:40:24;;;;;;;7.38;6.68;;;;;;;18.23;72.55;96219.56;5115070;28;20093;-66
2022/08/06 02:42:58;;;;;;;8.73;6.00;;;;;;;18.23;72.13;96213.41;5115239;27;20044;-67
2022/08/06 02:45:30;;;;;;;6.65;6.05;;;;;;;18.21;71.74;96204.75;5115059;28;20051;-69
2022/08/06 02:48:03;;;;;;;7.53;6.15;;;;;;;18.17;71.26;96206.75;5115138;28;20481;-65
2022/08/06 02:50:34;;;;;;;6.43;5.68;;;;;;;18.17;71.34;96212.06;5115181;28;20126;-66
2022/08/06 02:53:04;;;;;;;7.28;6.57;;;;;;;18.13;71.07;96214.09;5114901;28;20504;-69
2022/08/06 02:55:35;;;;;;;6.85;6.25;;;;;;;18.15;71.42;96206.06;5114991;28;20044;-70
2022/08/06 02:58:11;;;;;;;7.95;6.80;;;;;;;18.15;71.44;96206.88;5114949;28;20130;-70
2022/08/06 03:00:42;;;;;;;8.75;6.50;;;;;;;18.16;71.99;96208.59;5114936;28;20096;-66
2022/08/06 03:03:14;;;;;;;7.47;6.78;;;;;;;18.16;72.12;96200.66;5114754;28;20496;-68
2022/08/06 03:05:46;;;;;;;6.53;5.93;;;;;;;18.19;71.60;96204.88;5114428;28;20079;-66
2022/08/06 03:08:17;;;;;;;6.82;6.22;;;;;;;18.20;71.52;96201.25;5114750;28;20553;-65
2022/08/06 03:10:46;;;;;;;6.20;5.60;;;;;;;18.19;71.63;96195.09;5114626;28;20051;-68
2022/08/06 03:13:17;;;;;;;6.85;6.25;;;;;;;18.17;71.60;96207.63;5114684;28;20051;-65
2022/08/06 03:15:47;;;;;;;7.07;6.25;;;;;;;18.16;71.91;96199.78;5114547;28;20052;-68
2022/08/06 03:18:16;;;;;;;8.48;6.75;;;;;;;18.22;72.04;96203.78;5114350;28;20477;-67
2022/08/06 03:20:44;;;;;;;9.55;6.72;;;;;;;18.23;71.87;96205.47;5114506;28;20543;-68
2022/08/06 03:23:13;;;;;;;6.88;6.05;;;;;;;18.19;71.79;96210.97;5114423;28;20109;-69
2022/08/06 03:25:41;;;;;;;8.23;6.40;;;;;;;18.23;71.84;96208.97;5114371;28;20152;-70
2022/08/06 03:28:10;;;;;;;6.85;6.15;;;;;;;18.25;72.10;96209.72;5114323;28;20044;-67
2022/08/06 03:30:40;;;;;;;7.75;6.38;;;;;;;18.26;72.59;96218.47;5114441;28;20503;-70
2022/08/06 03:33:10;;;;;;;8.05;7.28;;;;;;;18.23;72.84;96214.25;5114249;28;20052;-69
2022/08/06 03:35:39;;;;;;;6.93;6.25;;;;;;;18.25;72.87;96216.78;5114234;28;20413;-67
2022/08/06 03:38:09;;;;;;;7.40;6.70;;;;;;;18.25;72.64;96214.16;5114138;28;20040;-68
2022/08/06 03:40:38;;;;;;;7.32;6.63;;;;;;;18.25;73.11;96211.50;5114007;28;20051;-68
2022/08/06 03:43:06;;;;;;;6.97;6.20;;;;;;;18.26;72.98;96214.03;5114046;28;20434;-69
2022/08/06 03:45:38;;;;;;;7.47;6.78;;;;;;;18.32;72.89;96218.03;5114026;28;20090;-68
2022/08/06 03:48:09;;;;;;;7.68;6.88;;;;;;;18.39;73.01;96218.41;5113293;28;20079;-69
2022/08/06 03:50:42;;;;;;;8.77;6.20;;;;;;;18.43;72.99;96223.34;5113972;28;20088;-66
2022/08/06 03:53:17;;;;;;;7.40;6.70;;;;;;;18.51;72.87;96220.13;5113833;28;20044;-67
2022/08/06 03:55:47;;;;;;;7.68;5.57;;;;;;;18.53;72.68;96218.22;5114049;28;20122;-68
2022/08/06 03:58:16;;;;;;;6.90;6.30;;;;;;;18.61;72.82;96225.59;5113904;28;20074;-67
2022/08/06 04:00:48;;;;;;;7.07;6.38;;;;;;;18.66;72.45;96219.94;5113793;28;20130;-69
2022/08/06 04:03:18;;;;;;;6.72;6.13;;;;;;;18.71;72.29;96224.88;5113950;28;20119;-68
2022/08/06 04:05:45;;;;;;;6.65;5.93;;;;;;;18.78;72.33;96221.63;5113589;28;20039;-67
2022/08/06 04:08:14;;;;;;;7.43;6.60;;;;;;;18.89;72.34;96225.25;5113796;28;20503;-68
2022/08/06 04:10:43;;;;;;;8.00;6.38;;;;;;;18.97;71.82;96228.19;5113739;28;20048;-65
2022/08/06 04:13:13;;;;;;;6.78;6.18;;;;;;;19.09;72.10;96225.56;5113904;28;20052;-65
2022/08/06 04:15:42;;;;;;;8.50;5.90;;;;;;;19.15;71.39;96230.41;5113701;28;20105;-67
2022/08/06 04:18:11;;;;;;;7.15;6.03;;;;;;;19.21;71.39;96218.47;5113645;28;20044;-69
2022/08/06 04:20:42;;;;;;;6.57;5.97;;;;;;;19.30;71.67;96228.34;5113516;28;20083;-69
2022/08/06 04:23:10;;;;;;;6.25;5.63;;;;;;;19.35;71.31;96231.47;5113536;28;20100;-65
2022/08/06 04:25:41;;;;;;;6.68;6.07;;;;;;;19.52;70.95;96224.84;5113499;28;20456;-68
2022/08/06 04:28:11;;;;;;;6.95;6.25;;;;;;;19.77;70.96;96222.00;5113360;28;20056;-69
2022/08/06 04:30:40;;;;;;;6.82;6.22;;;;;;;19.93;70.66;96219.81;5113415;28;20535;-67
2022/08/06 04:33:12;;;;;;;8.50;5.55;;;;;;;20.05;70.11;96225.97;5113413;28;20051;-67
2022/08/06 04:35:43;;;;;;;7.60;5.93;;;;;;;20.18;70.01;96224.97;5113343;28;20047;-69
2022/08/06 04:38:11;;;;;;;7.88;5.57;;;;;;;20.43;70.10;96222.94;5113361;28;20084;-68
2022/08/06 04:40:39;;;;;;;10.18;5.47;;;;;;;20.64;69.94;96222.09;5113239;28;20165;-69
2022/08/06 04:43:08;;;;;;;10.55;5.80;;;;;;;20.80;69.62;96222.47;5113268;28;20047;-66
2022/08/06 04:45:36;;;;;;;6.30;5.70;;;;;;;21.24;68.93;96229.47;5113265;28;20044;-65
2022/08/06 04:48:05;;;;;;;6.47;5.53;;;;;;;21.62;68.16;96232.44;5113252;28;20048;-67
2022/08/06 04:50:32;;;;;;;6.50;5.18;;;;;;;21.99;67.68;96223.00;5113361;28;20467;-66
2022/08/06 04:53:09;;;;;;;9.57;5.43;;;;;;;22.41;65.36;96231.72;5113257;28;20143;-68
2022/08/06 04:55:37;;;;;;;6.82;5.53;;;;;;;22.75;64.01;96233.16;5113287;28;20485;-69
2022/08/06 04:58:08;;;;;;;8.50;5.65;;;;;;;23.07;64.70;96227.47;5113259;28;20469;-69
2022/08/06 05:00:38;;;;;;;6.97;5.60;;;;;;;23.40;63.34;96232.44;5116912;28;20101;-69
2022/08/06 05:03:05;;;;;;;5.95;5.25;;;;;;;24.02;62.15;96230.97;5117117;27;20070;-69
2022/08/06 05:05:39;;;;;;;6.10;5.10;;;;;;;24.72;60.49;96236.66;5116859;27;20074;-68
2022/08/06 05:08:09;;;;;;;8.10;4.57;;;;;;;25.32;58.13;96235.09;5117144;28;20058;-66
2022/08/06 05:10:40;;;;;;;;;;;;;;;25.93;56.96;96230.69;5117523;28;20126;-66
2022/08/06 05:13:10;;;;;;;;;;;;;;;26.55;55.25;96234.00;5117435;28;20333;-64
2022/08/06 05:15:41;;;;;;;4.88;4.30;;;;;;;27.09;54.02;96236.16;5116956;28;19919;-68
2022/08/06 05:18:11;;;;;;;4.65;4.22;;;;;;;27.39;50.41;96235.59;5116828;28;20484;-68
2022/08/06 05:20:42;;;;;;;4.60;4.17;;;;;;;27.79;49.55;96234.81;5116899;28;20605;-66
2022/08/06 05:23:22;;;;;;;7.28;4.30;;;;;;;28.34;48.86;96240.25;5116881;28;20081;-69
2022/08/06 05:25:51;;;;;;;4.10;3.75;;;;;;;28.82;47.32;96231.13;5116919;28;20071;-69
2022/08/06 05:28:18;;;;;;;8.48;4.20;;;;;;;29.33;45.78;96243.13;5116681;28;20051;-66
2022/08/06 05:30:46;;;;;;;6.38;4.03;;;;;;;29.85;46.37;96244.06;5116739;28;20388;-68
2022/08/06 05:33:24;;;;;;;5.85;4.22;;;;;;;30.38;44.75;96239.50;5116724;28;20553;-67
2022/08/06 05:35:52;;;;;;;7.65;4.28;;;;;;;30.88;43.43;96244.16;5116539;28;20040;-68
2022/08/06 05:38:21;;;;;;;4.43;4.03;;;;;;;31.32;41.85;96236.78;5116487;28;20051;-64
2022/08/06 05:40:48;;;;;;;7.25;3.80;;;;;;;31.70;40.62;96232.03;5116394;28;20063;-67
2022/08/06 05:43:15;;;;;;;4.70;4.10;;;;;;;32.08;39.42;96245.09;5116529;28;20484;-68
2022/08/06 05:45:44;;;;;;;4.10;3.70;;;;;;;32.24;38.47;96240.38;5116473;28;20047;-69
2022/08/06 05:48:14;;;;;;;3.88;3.58;;;;;;;32.22;38.25;96235.16;5116341;28;20450;-70
2022/08/06 05:50:48;;;;;;;7.72;4.28;;;;;;;32.07;38.93;96231.78;5116199;28;20054;-68
2022/08/06 05:53:23;;;;;;;5.10;3.78;;;;;;;31.88;40.00;96236.91;5116393;28;20058;-67
2022/08/06 05:55:55;;;;;;;6.40;4.03;;;;;;;32.10;40.90;96239.50;5116059;27;20043;-69
2022/08/06 05:58:37;;;;;;;4.38;3.97;;;;;;;32.26;37.81;96227.47;5116134;28;20043;-68
2022/08/06 06:01:07;;;;;;;6.93;3.60;;;;;;;32.32;37.51;96239.38;5116043;28;20047;-68
2022/08/06 06:03:34;;;;;;;;;;;;;;;32.01;36.19;96230.72;5116583;28;20104;-67
2022/08/06 06:06:03;;;;;;;3.92;3.60;;;;;;;31.35;38.58;96231.03;5116118;28;19924;-69
2022/08/06 06:08:32;;;;;;;5.80;3.50;;;;;;;30.63;39.23;96236.41;5115892;28;20104;-70
2022/08/06 06:11:00;;;;;;;3.85;3.55;;;;;;;30.07;40.92;96230.63;5115158;28;20039;-67
2022/08/06 06:13:28;;;;;;;5.78;3.65;;;;;;;29.98;40.62;96239.88;5116419;28;20075;-67
2022/08/06 06:16:01;;;;;;;7.55;3.97;;;;;;;29.93;40.36;96239.59;5115755;27;20083;-67
2022/08/06 06:18:39;;;;;;;4.50;4.10;;;;;;;29.84;40.47;96241.56;5115709;28;20054;-67
2022/08/06 06:21:14;;;;;;;5.45;3.90;;;;;;;29.91;40.65;96245.19;5115609;28;20048;-68
2022/08/06 06:23:51;;;;;;;8.13;3.78;;;;;;;30.00;41.26;96241.34;5115609;28;20106;-69
2022/08/06 06:26:25;;;;;;;7.18;4.03;;;;;;;30.00;41.88;96243.19;5115638;28;20458;-69
2022/08/06 06:29:01;;;;;;;8.23;3.90;;;;;;;30.09;40.99;96239.38;5115493;28;20400;-69
2022/08/06 06:31:38;;;;;;;5.32;3.75;;;;;;;30.29;38.89;96244.19;5115520;28;20047;-68
2022/08/06 06:34:10;;;;;;;4.70;3.67;;;;;;;30.49;38.03;96238.19;5115423;27;20047;-67
2022/08/06 06:36:52;;;;;;;7.25;3.95;;;;;;;30.54;38.19;96238.41;5115376;27;20051;-67
2022/08/06 06:39:28;;;;;;;5.25;3.92;;;;;;;30.51;36.81;96239.66;5115129;28;20476;-69
2022/08/06 06:42:02;;;;;;;5.57;3.75;;;;;;;30.62;36.92;96238.31;5115326;28;20036;-67
2022/08/06 06:44:37;;;;;;;4.30;3.90;;;;;;;30.38;37.07;96232.28;5115311;28;20142;-68
2022/08/06 06:47:09;;;;;;;6.65;3.80;;;;;;;30.48;37.49;96240.03;5115142;28;20540;-69
2022/08/06 06:49:42;;;;;;;5.72;3.55;;;;;;;30.65;35.84;96231.69;5115020;28;20127;-67
2022/08/06 06:52:13;;;;;;;8.52;3.70;;;;;;;31.06;34.92;96229.34;5115019;28;20374;-67
2022/08/06 06:54:47;;;;;;;7.53;3.83;;;;;;;31.40;33.61;96222.31;5115061;28;20052;-70
2022/08/06 06:57:21;;;;;;;7.85;3.83;;;;;;;31.23;33.30;96219.91;5114924;28;20165;-68
2022/08/06 06:59:53;;;;;;;4.60;3.63;;;;;;;31.19;34.06;96217.78;5114906;28;20043;-70
2022/08/06 07:02:24;;;;;;;8.57;3.47;;;;;;;30.94;35.34;96224.47;5114902;28;20047;-70
2022/08/06 07:04:52;;;;;;;7.70;3.65;;;;;;;31.01;34.51;96213.72;5114632;28;20048;-67
2022/08/06 07:07:21;;;;;;;5.55;3.40;;;;;;;31.67;33.54;96214.38;5114753;28;20096;-71
2022/08/06 07:09:53;;;;;;;7.43;3.65;;;;;;;31.75;32.45;96210.63;5114683;28;20047;-70
2022/08/06 07:12:22;;;;;;;4.05;3.33;;;;;;;31.27;32.80;96221.16;5114737;28;20044;-67
2022/08/06 07:14:51;;;;;;;5.65;3.40;;;;;;;31.23;33.00;96210.97;5114658;28;20054;-66
2022/08/06 07:17:20;;;;;;;4.63;3.72;;;;;;;31.54;33.22;96215.09;5114664;28;20044;-67
2022/08/06 07:19:50;;;;;;;4.20;3.53;;;;;;;31.61;32.51;96221.41;5114453;28;20507;-66
2022/08/06 07:22:17;;;;;;;;;;;;;;;31.99;33.25;96212.00;5113887;28;20591;-65
2022/08/06 07:24:45;;;;;;;5.20;3.40;;;;;;;32.45;31.29;96206.94;5114453;28;19919;-66
2022/08/06 07:27:14;;;;;;;5.63;3.40;;;;;;;32.89;31.32;96204.66;5114382;28;20454;-66
2022/08/06 07:29:42;;;;;;;4.23;3.37;;;;;;;33.20;30.18;96204.25;5114359;28;20051;-66
2022/08/06 07:32:10;;;;;;;6.13;3.25;;;;;;;33.50;29.28;96198.34;5114210;28;20291;-65
2022/08/06 07:34:40;;;;;;;5.40;3.67;;;;;;;33.92;28.81;96206.16;5114239;28;20500;-66
2022/08/06 07:37:08;;;;;;;10.23;3.40;;;;;;;34.09;27.94;96202.91;5114193;28;20051;-66
2022/08/06 07:39:39;;;;;;;6.60;3.25;;;;;;;33.67;28.43;96201.44;5114030;28;20082;-67
2022/08/06 07:42:10;;;;;;;6.78;3.50;;;;;;;33.50;29.68;96201.06;5113930;28;20055;-66
2022/08/06 07:44:39;;;;;;;;;;;;;;;33.54;29.69;96207.72;5114449;28;20127;-65
2022/08/06 07:47:08;;;;;;;9.98;3.42;;;;;;;33.59;30.76;96207.91;5114061;28;19920;-65
2022/08/06 07:49:41;;;;;;;6.65;3.50;;;;;;;33.41;29.56;96195.84;5114084;28;20079;-66
2022/08/06 07:52:11;;;;;;;5.05;3.53;;;;;;;33.20;29.49;96193.44;5114028;28;20066;-65
2022/08/06 07:54:40;;;;;;;5.45;3.65;;;;;;;33.36;30.29;96205.69;5113894;28;20484;-66
2022/08/06 07:57:10;;;;;;;4.57;3.90;;;;;;;33.38;29.51;96190.88;5113799;28;20130;-66
2022/08/06 07:59:40;;;;;;;4.03;3.50;;;;;;;33.02;29.89;96198.41;5113893;28;20044;-67
2022/08/06 08:02:11;;;;;;;4.90;3.45;;;;;;;32.58;30.42;96197.16;5113738;28;20067;-67
2022/08/06 08:07:24;;;;;;;4.35;3.35;;;;;;;32.43;30.56;96189.22;5113875;28;20161;-65
2022/08/06 08:09:52;;;;;;;5.63;3.22;;;;;;;32.62;31.33;96199.25;5113703;28;20134;-66
2022/08/06 08:12:21;;;;;;;4.50;3.80;;;;;;;32.59;31.39;96186.13;5113675;28;20044;-65
2022/08/06 08:14:51;;;;;;;6.95;3.70;;;;;;;32.78;30.19;96186.38;5113630;28;20436;-65
2022/08/06 08:17:18;;;;;;;6.22;3.60;;;;;;;32.78;29.90;96191.78;5113581;28;20078;-66
2022/08/06 08:19:45;;;;;;;7.22;3.40;;;;;;;32.89;29.97;96185.72;5113539;28;20432;-67
2022/08/06 08:22:17;;;;;;;4.13;3.35;;;;;;;33.43;30.03;96186.72;5113448;28;20044;-66
2022/08/06 08:24:45;;;;;;;3.97;3.42;;;;;;;33.05;29.44;96197.22;5113439;28;20052;-68
2022/08/06 08:27:14;;;;;;;4.15;3.50;;;;;;;32.49;30.84;96188.41;5113654;28;20051;-66
2022/08/06 08:29:43;;;;;;;4.47;3.45;;;;;;;32.53;31.03;96184.25;5113428;28;20078;-65
2022/08/06 08:32:14;;;;;;;4.95;3.80;;;;;;;32.57;31.56;96198.22;5113431;28;20050;-66
2022/08/06 08:34:42;;;;;;;4.07;3.70;;;;;;;32.50;30.54;96180.09;5115857;28;20104;-66
2022/08/06 08:37:10;;;;;;;5.53;3.50;;;;;;;32.57;31.54;96188.25;5117746;27;20040;-67
2022/08/06 08:39:37;;;;;;;3.72;3.42;;;;;;;32.64;30.77;96180.09;5117641;28;20051;-67
2022/08/06 08:42:10;;;;;;;8.68;3.70;;;;;;;32.80;32.23;96186.97;5117414;28;20058;-66
2022/08/06 08:44:41;;;;;;;4.65;3.35;;;;;;;33.18;29.69;96190.94;5117649;28;20052;-68
2022/08/06 08:47:14;;;;;;;5.70;3.50;;;;;;;33.18;30.43;96177.38;5117568;28;20100;-66
2022/08/06 08:49:42;;;;;;;4.38;3.45;;;;;;;32.61;30.08;96183.22;5117594;28;20396;-67
2022/08/06 08:52:14;;;;;;;8.68;3.40;;;;;;;32.61;29.90;96169.69;5117437;27;20100;-68
2022/08/06 08:54:47;;;;;;;3.65;3.33;;;;;;;32.86;29.82;96164.47;5117418;28;20087;-64
2022/08/06 08:57:17;;;;;;;3.40;2.65;;;;;;;32.59;29.88;96164.50;5117415;28;20098;-66
2022/08/06 08:59:44;;;;;;;6.10;3.70;;;;;;;32.71;31.07;96163.88;5117217;28;20507;-68
2022/08/06 09:02:14;;;;;;;7.13;3.20;;;;;;;33.15;30.16;96170.53;5117253;28;20325;-67
2022/08/06 09:04:42;;;;;;;4.53;3.33;;;;;;;33.28;28.96;96161.53;5117056;28;20070;-65
2022/08/06 09:07:10;;;;;;;4.15;2.80;;;;;;;33.19;28.94;96160.09;5117378;28;20092;-67
2022/08/06 09:09:39;;;;;;;5.10;3.15;;;;;;;32.98;28.78;96158.41;5117097;28;20120;-68
2022/08/06 09:12:07;;;;;;;3.05;2.75;;;;;;;33.07;28.99;96161.78;5116919;28;20555;-66
2022/08/06 09:14:35;;;;;;;4.22;3.30;;;;;;;33.24;27.90;96152.16;5116949;28;20681;-68
2022/08/06 09:17:04;;;;;;;3.17;2.88;;;;;;;33.24;28.89;96156.75;5116879;28;20055;-67
2022/08/06 09:19:34;;;;;;;5.43;3.13;;;;;;;33.83;28.94;96164.06;5116985;28;20496;-68
2022/08/06 09:22:02;;;;;;;;;;;;;;;33.95;28.37;96161.50;5117147;28;20055;-65
2022/08/06 09:24:29;;;;;;;4.22;2.95;;;;;;;33.95;27.47;96147.94;5116909;28;20365;-66
2022/08/06 09:27:05;;;;;;;3.10;2.80;;;;;;;33.46;27.73;96151.88;5116824;28;20131;-65
2022/08/06 09:29:32;;;;;;;3.33;3.03;;;;;;;33.52;28.42;96151.03;5116581;28;20475;-66
2022/08/06 09:32:01;;;;;;;4.85;2.90;;;;;;;33.76;26.45;96143.22;5116654;28;20047;-64
2022/08/06 09:34:38;;;;;;;7.43;2.90;;;;;;;33.74;27.08;96158.06;5116496;28;20043;-68
2022/08/06 09:37:06;;;;;;;3.92;3.00;;;;;;;33.38;27.55;96146.69;5116540;28;20051;-67
2022/08/06 09:39:39;;;;;;;3.10;2.88;;;;;;;33.16;27.80;96146.97;5116473;28;20122;-68
2022/08/06 09:42:06;;;;;;;3.00;2.72;;;;;;;32.98;28.45;96145.72;5116455;28;20498;-68
2022/08/06 09:44:34;;;;;;;6.15;3.45;;;;;;;33.11;28.43;96146.78;5116361;27;20183;-69
2022/08/06 09:47:01;;;;;;;4.60;2.60;;;;;;;33.08;29.01;96144.50;5115321;28;20050;-67
2022/08/06 09:49:43;;;;;;;6.55;3.28;;;;;;;32.69;29.15;96144.31;5116261;28;20502;-67
2022/08/06 09:52:17;;;;;;;3.35;3.10;;;;;;;32.49;29.21;96150.53;5116172;27;20077;-65
2022/08/06 09:54:45;;;;;;;4.43;3.42;;;;;;;32.41;29.43;96156.97;5116164;28;20130;-71
2022/08/06 09:57:12;;;;;;;3.08;2.78;;;;;;;32.86;28.93;96150.09;5116062;28;20465;-68
2022/08/06 09:59:44;;;;;;;8.63;3.50;;;;;;;33.17;28.79;96148.66;5116127;27;20051;-68
2022/08/06 10:02:17;;;;;;;3.20;2.90;;;;;;;33.03;29.33;96145.94;5116040;28;20079;-67
2022/08/06 10:04:45;;;;;;;6.25;3.15;;;;;;;32.77;28.91;96141.38;5115869;28;20054;-66
2022/08/06 10:07:13;;;;;;;10.32;3.55;;;;;;;32.58;29.16;96138.47;5115922;28;20047;-67
2022/08/06 10:09:55;;;;;;;4.85;3.20;;;;;;;32.40;29.21;96144.47;5115820;28;20427;-67
2022/08/06 10:12:24;;;;;;;7.88;3.15;;;;;;;32.22;29.84;96143.22;5115787;28;20043;-68
2022/08/06 10:14:52;;;;;;;5.30;2.70;;;;;;;31.99;30.77;96130.91;5115741;28;20065;-66
2022/08/06 10:17:21;;;;;;;3.92;2.90;;;;;;;32.25;29.63;96125.75;5115761;27;20099;-66
2022/08/06 10:19:51;;;;;;;3.65;2.88;;;;;;;32.76;28.95;96112.66;5115866;28;20054;-68
2022/08/06 10:22:20;;;;;;;3.90;2.65;;;;;;;33.19;27.93;96121.34;5115736;28;20079;-67
2022/08/06 10:24:50;;;;;;;3.38;2.90;;;;;;;33.08;27.51;96115.50;5115693;28;20055;-68
2022/08/06 10:27:22;;;;;;;9.50;3.17;;;;;;;32.46;28.94;96115.75;5115653;28;20104;-68
2022/08/06 10:29:52;;;;;;;7.32;3.20;;;;;;;32.02;29.97;96122.38;5115626;28;20404;-68
2022/08/06 10:32:26;;;;;;;4.63;3.63;;;;;;;32.02;30.04;96124.25;5115620;28;20140;-67
2022/08/06 10:34:56;;;;;;;6.03;3.10;;;;;;;31.74;30.30;96107.13;5115487;28;20280;-68
2022/08/06 10:37:25;;;;;;;3.47;3.17;;;;;;;31.58;30.86;96102.91;5115402;28;20096;-66
2022/08/06 10:39:56;;;;;;;3.97;3.30;;;;;;;31.48;30.97;96113.28;5115355;28;20126;-67
2022/08/06 10:42:26;;;;;;;3.22;2.92;;;;;;;31.48;31.19;96108.69;5115185;28;20051;-67
2022/08/06 10:44:55;;;;;;;4.05;3.00;;;;;;;31.62;29.78;96098.78;5115297;28;20051;-67
2022/08/06 10:47:23;;;;;;;4.32;2.95;;;;;;;31.76;29.80;96104.22;5115200;28;20044;-70
2022/08/06 10:49:53;;;;;;;3.35;3.00;;;;;;;32.12;29.41;96083.28;5115229;28;20498;-70
2022/08/06 10:52:20;;;;;;;3.35;2.90;;;;;;;32.71;28.80;96079.97;5115132;28;20047;-70
2022/08/06 10:54:48;;;;;;;2.88;2.67;;;;;;;32.91;27.77;96093.47;5115065;28;20071;-66
2022/08/06 10:57:16;;;;;;;7.88;2.72;;;;;;;32.73;29.04;96086.84;5114822;28;20503;-67
2022/08/06 10:59:46;;;;;;;6.85;2.85;;;;;;;32.81;28.06;96079.53;5114980;28;20097;-68
2022/08/06 11:02:17;;;;;;;;;;;;;;;32.92;28.61;96083.47;5115310;28;20507;-70
2022/08/06 11:04:50;;;;;;;4.82;2.70;;;;;;;32.75;28.08;96084.72;5114597;28;19924;-66
2022/08/06 11:07:53;;;;;;;4.95;2.53;;;;;;;32.93;26.44;96080.56;5114797;28;20043;-67
2022/08/06 11:10:35;;;;;;;5.90;2.90;;;;;;;33.33;27.84;96089.59;5114939;28;20474;-66
2022/08/06 11:13:12;;;;;;;6.07;2.85;;;;;;;33.45;26.93;96085.19;5114690;28;20048;-69
2022/08/06 11:15:42;;;;;;;2.78;2.55;;;;;;;33.76;26.90;96088.16;5114702;28;20407;-69
2022/08/06 11:18:11;;;;;;;5.97;2.90;;;;;;;33.67;27.47;96086.78;5114564;28;20044;-67
2022/08/06 11:20:43;;;;;;;6.25;2.88;;;;;;;33.36;27.39;96084.59;5114531;28;20050;-68
2022/08/06 11:23:30;;;;;;;3.20;2.95;;;;;;;32.81;27.72;96079.53;5114471;28;20484;-68
2022/08/06 11:25:59;;;;;;;4.13;3.10;;;;;;;32.75;28.33;96076.63;5114455;28;20092;-68
2022/08/06 11:29:01;;;;;;;4.07;2.75;;;;;;;32.53;28.44;96076.88;5114491;28;20568;-68
2022/08/06 11:31:36;;;;;;;3.47;3.03;;;;;;;32.64;28.58;96078.13;5114416;28;20043;-66
2022/08/06 11:34:06;;;;;;;3.25;2.95;;;;;;;32.94;28.86;96071.38;5114375;28;20044;-66
2022/08/06 11:36:54;;;;;;;5.50;2.60;;;;;;;33.25;28.09;96080.69;5114307;28;20477;-68
2022/08/06 11:39:22;;;;;;;2.67;2.47;;;;;;;32.94;27.68;96078.66;5114020;28;20097;-69
2022/08/06 11:41:53;;;;;;;3.97;2.63;;;;;;;32.75;27.47;96078.50;5114095;28;20120;-68
2022/08/06 11:44:30;;;;;;;7.30;2.90;;;;;;;32.68;27.88;96077.69;5114099;28;20043;-66
2022/08/06 11:47:16;;;;;;;5.70;3.35;;;;;;;32.34;27.66;96080.38;5114231;28;20093;-69
2022/08/06 11:49:48;;;;;;;3.53;2.65;;;;;;;32.42;28.03;96072.06;5114102;28;20142;-67
2022/08/06 11:52:41;;;;;;;5.03;3.03;;;;;;;32.76;28.52;96072.03;5114126;28;20050;-67
2022/08/06 11:55:10;;;;;;;3.30;2.90;;;;;;;32.92;28.11;96068.03;5113862;27;20488;-68